createdAt,value
2023-04-26T00:00:59.404Z,100617.22
2023-04-26T00:03:48.554Z,100615.13
2023-04-26T00:06:21.172Z,100610.94
2023-04-26T00:08:58.980Z,100613.38
2023-04-26T00:11:29.897Z,100620.75
2023-04-26T00:14:01.235Z,100621.53
2023-04-26T00:16:35.390Z,100623.78
2023-04-26T00:19:16.830Z,100630.03
2023-04-26T00:21:53.310Z,100625.78
2023-04-26T00:24:32.587Z,100622.63
2023-04-26T00:30:27.979Z,100629.59
2023-04-26T00:32:58.129Z,100626.41
2023-04-26T00:35:31.337Z,100625.28
2023-04-26T00:38:13.587Z,100622.91
2023-04-26T00:41:40.253Z,100626.09
2023-04-26T00:44:11.281Z,100632.63
2023-04-26T00:46:49.641Z,100643.34
2023-04-26T00:49:29.548Z,100646.22
2023-04-26T00:52:07.555Z,100652.69
2023-04-26T00:55:01.853Z,100656.59
2023-04-26T00:57:42.888Z,100672.06
2023-04-26T01:00:27.271Z,100668.09
2023-04-26T01:03:01.531Z,100672.09
2023-04-26T01:05:41.613Z,100675.50
2023-04-26T01:08:19.248Z,100680.66
2023-04-26T01:10:58.592Z,100680.28
2023-04-26T01:13:35.774Z,100685.72
2023-04-26T01:16:12.783Z,100686.19
2023-04-26T01:18:55.799Z,100685.75
2023-04-26T01:21:27.167Z,100692.25
2023-04-26T01:23:59.775Z,100688.59
2023-04-26T01:26:35.197Z,100692.50
2023-04-26T01:29:21.122Z,100694.63
2023-04-26T01:31:53.349Z,100699.94
2023-04-26T01:34:25.496Z,100696.03
2023-04-26T01:37:00.091Z,100693.94
2023-04-26T01:39:33.202Z,100704.50
2023-04-26T01:42:07.546Z,100701.19
2023-04-26T01:44:39.963Z,100699.00
2023-04-26T01:47:13.929Z,100686.59
2023-04-26T01:49:48.969Z,100698.31
2023-04-26T01:52:20.993Z,100702.38
2023-04-26T01:54:52.797Z,100702.69
2023-04-26T01:57:23.700Z,100708.13
2023-04-26T01:59:55.569Z,100701.94
2023-04-26T02:02:27.989Z,100706.44
2023-04-26T02:04:57.358Z,100703.50
2023-04-26T02:07:32.190Z,100702.53
2023-04-26T02:10:02.996Z,100704.59
2023-04-26T02:12:32.782Z,100695.56
2023-04-26T02:15:03.959Z,100706.31
2023-04-26T02:17:35.204Z,100703.81
2023-04-26T02:20:07.290Z,100712.19
2023-04-26T02:22:43.048Z,100709.69
2023-04-26T02:25:18.608Z,100707.69
2023-04-26T02:27:48.845Z,100702.88
2023-04-26T02:30:42.464Z,100703.03
2023-04-26T02:33:19.798Z,100708.69
2023-04-26T02:35:50.097Z,100719.25
2023-04-26T02:38:23.214Z,100709.72
2023-04-26T02:41:05.578Z,100709.75
2023-04-26T02:43:39.588Z,100711.06
2023-04-26T02:46:13.890Z,100701.91
2023-04-26T02:48:57.003Z,100703.38
2023-04-26T02:51:28.546Z,100699.06
2023-04-26T02:54:01.623Z,100695.06
2023-04-26T02:56:35.899Z,100699.41
2023-04-26T02:59:09.958Z,100698.25
2023-04-26T03:01:47.041Z,100702.09
2023-04-26T03:04:21.080Z,100698.44
2023-04-26T03:07:08.007Z,100694.38
2023-04-26T03:09:51.390Z,100692.41
2023-04-26T03:12:23.483Z,100693.25
2023-04-26T03:14:55.470Z,100699.25
2023-04-26T03:17:29.227Z,100693.09
2023-04-26T03:20:02.680Z,100702.09
2023-04-26T03:22:35.503Z,100707.44
2023-04-26T03:25:09.441Z,100709.44
2023-04-26T03:27:48.587Z,100707.78
2023-04-26T03:30:24.170Z,100700.75
2023-04-26T03:32:59.933Z,100705.75
2023-04-26T03:35:32.089Z,100704.91
2023-04-26T03:38:04.385Z,100705.41
2023-04-26T03:40:35.389Z,100699.03
2023-04-26T03:43:08.314Z,100696.03
2023-04-26T03:45:39.386Z,100699.66
2023-04-26T03:48:12.836Z,100693.81
2023-04-26T03:50:52.652Z,100699.19
2023-04-26T03:53:23.858Z,100695.47
2023-04-26T03:55:59.798Z,100691.47
2023-04-26T03:58:47.497Z,100703.13
2023-04-26T04:01:23.351Z,100698.63
2023-04-26T04:03:55.839Z,100696.44
2023-04-26T04:06:25.849Z,100698.75
2023-04-26T04:08:55.323Z,100696.06
2023-04-26T04:11:24.900Z,100701.38
2023-04-26T04:13:54.083Z,100705.34
2023-04-26T04:16:24.526Z,100702.69
2023-04-26T04:18:53.479Z,100700.34
2023-04-26T04:21:22.877Z,100707.69
2023-04-26T04:23:51.672Z,100704.19
2023-04-26T04:26:21.572Z,100698.69
2023-04-26T04:28:52.814Z,100703.22
2023-04-26T04:31:24.117Z,100697.06
2023-04-26T04:33:52.849Z,100693.56
2023-04-26T04:36:22.696Z,100701.66
2023-04-26T04:38:52.374Z,100707.34
2023-04-26T04:41:23.577Z,100709.34
2023-04-26T04:43:56.674Z,100703.16
2023-04-26T04:46:26.656Z,100705.19
2023-04-26T04:48:55.897Z,100716.63
2023-04-26T04:51:24.745Z,100718.78
2023-04-26T04:53:53.376Z,100716.59
2023-04-26T04:56:23.310Z,100719.41
2023-04-26T04:58:53.341Z,100717.91
2023-04-26T05:01:23.491Z,100721.72
2023-04-26T05:03:56.367Z,100721.88
2023-04-26T05:06:27.281Z,100723.19
2023-04-26T05:08:59.472Z,100722.16
2023-04-26T05:11:28.665Z,100716.09
2023-04-26T05:13:57.181Z,100711.22
2023-04-26T05:16:27.092Z,100705.69
2023-04-26T05:18:56.404Z,100703.84
2023-04-26T05:21:25.221Z,100695.03
2023-04-26T05:23:54.300Z,100698.22
2023-04-26T05:26:24.196Z,100701.69
2023-04-26T05:29:16.558Z,100699.50
2023-04-26T05:32:06.745Z,100696.94
2023-04-26T05:34:42.956Z,100690.81
2023-04-26T05:37:17.799Z,100686.63
2023-04-26T05:39:50.926Z,100689.16
2023-04-26T05:42:20.364Z,100682.44
2023-04-26T05:44:49.307Z,100678.25
2023-04-26T05:47:18.916Z,100673.59
2023-04-26T05:49:47.823Z,100672.22
2023-04-26T05:52:17.755Z,100667.41
2023-04-26T05:54:47.928Z,100666.72
2023-04-26T05:57:18.984Z,100672.38
2023-04-26T05:59:48.773Z,100675.22
2023-04-26T06:02:19.110Z,100669.56
2023-04-26T06:04:48.516Z,100671.06
2023-04-26T06:07:19.168Z,100674.25
2023-04-26T06:09:49.945Z,100662.06
2023-04-26T06:12:19.126Z,100663.41
2023-04-26T06:14:48.631Z,100663.94
2023-04-26T06:17:23.161Z,100662.66
2023-04-26T06:19:52.489Z,100660.63
2023-04-26T06:22:21.006Z,100657.44
2023-04-26T06:24:52.403Z,100657.63
2023-04-26T06:27:21.049Z,100655.13
2023-04-26T06:29:53.111Z,100659.59
2023-04-26T06:32:22.736Z,100661.13
2023-04-26T06:34:52.053Z,100661.75
2023-04-26T06:37:21.001Z,100656.59
2023-04-26T06:39:51.381Z,100659.78
2023-04-26T06:42:21.085Z,100656.25
2023-04-26T06:45:11.141Z,100658.81
2023-04-26T06:47:40.125Z,100664.97
2023-04-26T06:50:09.462Z,100661.00
2023-04-26T06:52:39.140Z,100658.00
2023-04-26T06:55:08.398Z,100657.03
2023-04-26T06:57:37.419Z,100663.34
2023-04-26T07:00:07.943Z,100662.00
2023-04-26T07:02:36.930Z,100666.97
2023-04-26T07:05:07.005Z,100667.63
2023-04-26T07:07:36.777Z,100675.47
2023-04-26T07:10:06.856Z,100678.16
2023-04-26T07:12:39.273Z,100667.47
2023-04-26T07:15:10.203Z,100667.34
2023-04-26T07:17:40.140Z,100668.84
2023-04-26T07:20:09.679Z,100659.03
2023-04-26T07:22:39.162Z,100674.88
2023-04-26T07:25:09.614Z,100661.41
2023-04-26T07:27:39.244Z,100660.78
2023-04-26T07:30:09.503Z,100671.13
2023-04-26T07:32:38.843Z,100678.84
2023-04-26T07:35:09.765Z,100676.97
2023-04-26T07:37:39.155Z,100679.50
2023-04-26T07:40:11.217Z,100682.69
2023-04-26T07:42:40.613Z,100678.84
2023-04-26T07:45:10.809Z,100683.50
2023-04-26T07:47:40.162Z,100685.19
2023-04-26T07:50:09.941Z,100680.16
2023-04-26T07:52:39.949Z,100685.34
2023-04-26T07:55:10.769Z,100689.19
2023-04-26T07:57:40.238Z,100688.03
2023-04-26T08:00:14.232Z,100685.69
2023-04-26T08:02:45.607Z,100688.50
2023-04-26T08:05:19.202Z,100697.28
2023-04-26T08:07:48.301Z,100693.44
2023-04-26T08:10:18.347Z,100690.41
2023-04-26T08:12:47.919Z,100697.75
2023-04-26T08:15:19.739Z,100694.41
2023-04-26T08:17:49.803Z,100695.91
2023-04-26T08:20:26.806Z,100684.75
2023-04-26T08:23:05.493Z,100674.09
2023-04-26T08:25:37.630Z,100672.72
2023-04-26T08:28:09.359Z,100672.81
2023-04-26T08:30:39.244Z,100679.84
2023-04-26T08:33:08.258Z,100678.44
2023-04-26T08:35:37.326Z,100682.56
2023-04-26T08:38:06.215Z,100681.84
2023-04-26T08:40:38.247Z,100684.22
2023-04-26T08:43:22.679Z,100681.84
2023-04-26T08:45:59.729Z,100687.72
2023-04-26T08:48:41.485Z,100696.06
2023-04-26T08:51:33.601Z,100691.84
2023-04-26T08:54:09.986Z,100692.03
2023-04-26T08:56:47.119Z,100690.34
2023-04-26T08:59:19.184Z,100690.16
2023-04-26T09:01:56.306Z,100689.50
2023-04-26T09:04:26.329Z,100684.19
2023-04-26T09:07:05.274Z,100678.66
2023-04-26T09:09:43.211Z,100688.56
2023-04-26T09:12:24.875Z,100691.91
2023-04-26T09:14:57.882Z,100690.06
2023-04-26T09:17:34.985Z,100687.75
2023-04-26T09:20:36.803Z,100699.91
2023-04-26T09:23:23.211Z,100707.78
2023-04-26T09:25:53.672Z,100716.94
2023-04-26T09:28:29.362Z,100716.13
2023-04-26T09:31:03.813Z,100709.72
2023-04-26T09:33:34.122Z,100706.38
2023-04-26T09:36:21.118Z,100703.03
2023-04-26T09:38:52.909Z,100702.72
2023-04-26T09:41:24.327Z,100692.69
2023-04-26T09:43:55.509Z,100688.00
2023-04-26T09:46:26.416Z,100684.81
2023-04-26T09:49:05.450Z,100687.50
2023-04-26T09:51:39.647Z,100688.00
2023-04-26T09:54:11.215Z,100692.19
2023-04-26T09:56:41.704Z,100679.69
2023-04-26T09:59:15.831Z,100680.19
2023-04-26T10:01:47.803Z,100678.03
2023-04-26T10:04:23.055Z,100671.84
2023-04-26T10:06:54.132Z,100682.00
2023-04-26T10:09:29.248Z,100685.84
2023-04-26T10:12:00.682Z,100694.56
2023-04-26T10:14:32.473Z,100689.38
2023-04-26T10:17:09.069Z,100683.69
2023-04-26T10:19:48.800Z,100683.69
2023-04-26T10:22:29.346Z,100684.03
2023-04-26T10:25:35.759Z,100696.06
2023-04-26T10:28:54.876Z,100698.75
2023-04-26T10:31:52.506Z,100706.91
2023-04-26T10:34:29.711Z,100700.25
2023-04-26T10:37:19.150Z,100712.75
2023-04-26T10:39:51.424Z,100715.44
2023-04-26T10:42:26.665Z,100707.25
2023-04-26T10:45:01.620Z,100704.25
2023-04-26T10:47:40.981Z,100705.91
2023-04-26T10:50:19.767Z,100708.06
2023-04-26T10:53:05.363Z,100726.66
2023-04-26T10:56:29.872Z,100725.50
2023-04-26T10:59:39.947Z,100727.47
2023-04-26T11:02:20.662Z,100734.00
2023-04-26T11:04:53.680Z,100732.47
2023-04-26T11:07:43.529Z,100730.50
2023-04-26T11:10:25.511Z,100735.84
2023-04-26T11:13:08.449Z,100751.06
2023-04-26T11:15:42.250Z,100742.53
2023-04-26T11:18:23.299Z,100740.50
2023-04-26T11:21:04.264Z,100739.69
2023-04-26T11:23:41.040Z,100742.34
2023-04-26T11:26:13.655Z,100745.34
2023-04-26T11:28:57.228Z,100737.84
2023-04-26T11:31:33.219Z,100728.16
2023-04-26T11:34:08.344Z,100731.97
2023-04-26T11:37:02.278Z,100731.53
2023-04-26T11:39:35.313Z,100742.09
2023-04-26T11:42:13.223Z,100742.72
2023-04-26T11:44:48.016Z,100747.91
2023-04-26T11:47:35.244Z,100747.53
2023-04-26T11:50:13.038Z,100746.97
2023-04-26T11:52:57.488Z,100747.59
2023-04-26T11:55:33.751Z,100744.91
2023-04-26T11:58:12.092Z,100751.19
2023-04-26T12:01:00.906Z,100745.88
2023-04-26T12:03:36.141Z,100747.53
2023-04-26T12:06:05.443Z,100744.31
2023-04-26T12:08:35.310Z,100741.63
2023-04-26T12:11:04.644Z,100737.06
2023-04-26T12:13:33.524Z,100740.16
2023-04-26T12:16:22.269Z,100738.91
2023-04-26T12:18:57.631Z,100736.19
2023-04-26T12:21:30.374Z,100733.53
2023-04-26T12:23:59.118Z,100741.75
2023-04-26T12:26:46.492Z,100737.59
2023-04-26T12:29:15.559Z,100740.00
2023-04-26T12:31:47.647Z,100732.56
2023-04-26T12:34:17.051Z,100734.50
2023-04-26T12:36:47.060Z,100727.91
2023-04-26T12:39:17.378Z,100732.00
2023-04-26T12:41:48.515Z,100730.53
2023-04-26T12:44:19.639Z,100725.53
2023-04-26T12:46:52.229Z,100725.41
2023-04-26T12:49:21.371Z,100723.19
2023-04-26T12:51:52.753Z,100724.53
2023-04-26T12:54:21.013Z,100731.97
2023-04-26T12:56:50.252Z,100725.03
2023-04-26T12:59:19.217Z,100723.88
2023-04-26T13:01:48.248Z,100724.34
2023-04-26T13:04:17.740Z,100728.66
2023-04-26T13:06:47.516Z,100732.06
2023-04-26T13:09:17.128Z,100724.28
2023-04-26T13:11:46.609Z,100724.56
2023-04-26T13:14:15.594Z,100729.19
2023-04-26T13:16:44.903Z,100725.88
2023-04-26T13:19:13.276Z,100723.19
2023-04-26T13:21:43.262Z,100715.38
2023-04-26T13:24:12.640Z,100715.38
2023-04-26T13:26:41.166Z,100708.53
2023-04-26T13:29:09.904Z,100715.84
2023-04-26T13:31:39.392Z,100718.41
2023-04-26T13:34:08.483Z,100710.38
2023-04-26T13:36:37.359Z,100711.47
2023-04-26T13:39:08.882Z,100706.94
2023-04-26T13:41:39.214Z,100707.97
2023-04-26T13:44:09.408Z,100703.50
2023-04-26T13:46:38.766Z,100705.31
2023-04-26T13:49:11.052Z,100705.31
2023-04-26T13:51:40.551Z,100701.16
2023-04-26T13:54:12.685Z,100694.72
2023-04-26T13:56:57.450Z,100715.03
2023-04-26T13:59:32.293Z,100700.63
2023-04-26T14:02:01.499Z,100702.88
2023-04-26T14:04:31.510Z,100700.41
2023-04-26T14:07:00.736Z,100700.03
2023-04-26T14:09:29.316Z,100696.72
2023-04-26T14:12:07.879Z,100699.00
2023-04-26T14:14:39.434Z,100686.44
2023-04-26T14:17:08.299Z,100695.97
2023-04-26T14:19:40.253Z,100696.00
2023-04-26T14:22:13.369Z,100694.75
2023-04-26T14:24:45.021Z,100685.94
2023-04-26T14:27:13.969Z,100688.72
2023-04-26T14:29:45.222Z,100690.59
2023-04-26T14:32:16.050Z,100687.31
2023-04-26T14:34:48.041Z,100678.00
2023-04-26T14:37:23.122Z,100679.84
2023-04-26T14:39:52.294Z,100672.31
2023-04-26T14:42:21.598Z,100666.63
2023-04-26T14:44:50.898Z,100677.25
2023-04-26T14:47:37.572Z,100661.59
2023-04-26T14:50:14.594Z,100663.03
2023-04-26T14:52:45.009Z,100664.22
2023-04-26T14:55:24.816Z,100657.06
2023-04-26T14:57:55.232Z,100653.38
2023-04-26T15:00:26.376Z,100653.00
2023-04-26T15:02:55.529Z,100646.03
2023-04-26T15:05:25.113Z,100644.66
2023-04-26T15:07:54.627Z,100634.41
2023-04-26T15:10:23.299Z,100639.53
2023-04-26T15:12:52.916Z,100643.88
2023-04-26T15:15:47.113Z,100635.09
2023-04-26T15:19:05.186Z,100633.81
2023-04-26T15:21:35.277Z,100634.44
2023-04-26T15:24:30.340Z,100629.94
2023-04-26T15:27:46.746Z,100634.78
2023-04-26T15:33:31.309Z,100623.50
2023-04-26T15:35:59.861Z,100622.78
2023-04-26T15:39:48.470Z,100616.28
2023-04-26T15:42:33.855Z,100606.25
2023-04-26T15:47:59.236Z,100604.09
2023-04-26T15:50:52.320Z,100603.03
2023-04-26T15:53:24.508Z,100601.47
2023-04-26T15:55:53.282Z,100585.50
2023-04-26T15:58:49.300Z,100592.72
2023-04-26T16:01:22.206Z,100581.72
2023-04-26T16:04:03.650Z,100579.81
2023-04-26T16:06:37.085Z,100585.09
2023-04-26T16:09:24.813Z,100568.03
2023-04-26T16:11:54.840Z,100567.16
2023-04-26T16:14:23.118Z,100561.94
2023-04-26T16:16:52.570Z,100565.22
2023-04-26T16:19:21.445Z,100566.28
2023-04-26T16:21:51.586Z,100558.75
2023-04-26T16:24:21.258Z,100549.34
2023-04-26T16:26:49.488Z,100553.66
2023-04-26T16:29:19.685Z,100547.97
2023-04-26T16:31:49.227Z,100544.75
2023-04-26T16:34:21.236Z,100541.06
2023-04-26T16:37:09.705Z,100537.69
2023-04-26T16:39:59.405Z,100535.91
2023-04-26T16:42:34.072Z,100529.06
2023-04-26T16:45:16.064Z,100522.34
2023-04-26T16:47:52.562Z,100528.75
2023-04-26T16:50:21.659Z,100527.38
2023-04-26T16:52:50.759Z,100523.63
2023-04-26T16:55:19.635Z,100525.28
2023-04-26T16:57:48.955Z,100519.91
2023-04-26T17:00:19.150Z,100525.75
2023-04-26T17:02:51.135Z,100523.34
2023-04-26T17:05:20.486Z,100524.22
2023-04-26T17:07:50.085Z,100508.72
2023-04-26T17:10:19.898Z,100509.34
2023-04-26T17:12:49.751Z,100497.50
2023-04-26T17:15:19.027Z,100492.28
2023-04-26T17:17:51.438Z,100500.19
2023-04-26T17:20:20.366Z,100491.53
2023-04-26T17:22:49.615Z,100486.03
2023-04-26T17:25:19.464Z,100484.19
2023-04-26T17:27:49.153Z,100490.72
2023-04-26T17:30:19.902Z,100480.75
2023-04-26T17:32:49.402Z,100470.53
2023-04-26T17:35:19.024Z,100476.72
2023-04-26T17:37:50.668Z,100476.03
2023-04-26T17:40:20.317Z,100482.66
2023-04-26T17:42:49.381Z,100469.16
2023-04-26T17:45:18.533Z,100475.06
2023-04-26T17:47:47.702Z,100469.44
2023-04-26T17:50:18.447Z,100468.88
2023-04-26T17:52:47.280Z,100464.72
2023-04-26T17:55:17.762Z,100463.66
2023-04-26T17:57:49.326Z,100473.34
2023-04-26T18:00:20.586Z,100463.59
2023-04-26T18:02:49.850Z,100466.63
2023-04-26T18:05:19.648Z,100462.59
2023-04-26T18:07:49.154Z,100454.19
2023-04-26T18:10:18.897Z,100465.03
2023-04-26T18:12:48.265Z,100459.22
2023-04-26T18:15:18.143Z,100458.56
2023-04-26T18:17:47.583Z,100457.06
2023-04-26T18:20:17.353Z,100451.69
2023-04-26T18:22:47.756Z,100450.88
2023-04-26T18:25:17.819Z,100449.38
2023-04-26T18:27:49.292Z,100457.44
2023-04-26T18:30:19.349Z,100469.31
2023-04-26T18:32:49.163Z,100466.91
2023-04-26T18:35:18.663Z,100469.69
2023-04-26T18:37:47.794Z,100466.63
2023-04-26T18:40:29.950Z,100471.25
2023-04-26T18:43:09.003Z,100480.53
2023-04-26T18:45:39.723Z,100474.59
2023-04-26T18:48:09.336Z,100474.41
2023-04-26T18:50:37.892Z,100458.88
2023-04-26T18:53:07.264Z,100455.09
2023-04-26T18:55:39.737Z,100452.47
2023-04-26T18:58:11.788Z,100450.91
2023-04-26T19:00:42.196Z,100441.53
2023-04-26T19:03:12.416Z,100434.06
2023-04-26T19:05:45.290Z,100424.88
2023-04-26T19:08:13.939Z,100416.56
2023-04-26T19:10:45.139Z,100423.88
2023-04-26T19:13:14.170Z,100425.88
2023-04-26T19:15:43.367Z,100406.25
2023-04-26T19:18:12.971Z,100406.25
2023-04-26T19:20:43.684Z,100396.41
2023-04-26T19:23:27.001Z,100399.94
2023-04-26T19:26:01.757Z,100394.06
2023-04-26T19:28:32.348Z,100388.97
2023-04-26T19:31:02.457Z,100384.06
2023-04-26T19:33:32.594Z,100382.63
2023-04-26T19:36:01.855Z,100381.97
2023-04-26T19:38:31.436Z,100380.53
2023-04-26T19:41:01.727Z,100365.81
2023-04-26T19:43:31.386Z,100366.44
2023-04-26T19:46:00.287Z,100367.09
2023-04-26T19:48:52.056Z,100366.47
2023-04-26T19:51:22.113Z,100373.78
2023-04-26T19:53:51.963Z,100372.31
2023-04-26T19:56:21.427Z,100377.63
2023-04-26T19:58:51.361Z,100376.31
2023-04-26T20:01:21.489Z,100369.06
2023-04-26T20:03:51.676Z,100372.06
2023-04-26T20:06:21.563Z,100374.44
2023-04-26T20:08:52.597Z,100369.53
2023-04-26T20:11:21.562Z,100370.41
2023-04-26T20:13:50.736Z,100372.56
2023-04-26T20:16:20.007Z,100362.38
2023-04-26T20:18:49.640Z,100367.72
2023-04-26T20:21:18.339Z,100356.28
2023-04-26T20:23:47.890Z,100346.75
2023-04-26T20:26:17.283Z,100356.44
2023-04-26T20:28:49.445Z,100363.00
2023-04-26T20:31:19.802Z,100362.69
2023-04-26T20:33:52.558Z,100372.06
2023-04-26T20:36:22.884Z,100364.84
2023-04-26T20:38:51.873Z,100360.69
2023-04-26T20:41:21.938Z,100354.53
2023-04-26T20:43:53.523Z,100345.72
2023-04-26T20:46:24.696Z,100352.97
2023-04-26T20:48:55.500Z,100349.97
2023-04-26T20:51:25.516Z,100349.81
2023-04-26T20:53:55.602Z,100348.25
2023-04-26T20:56:24.801Z,100353.88
2023-04-26T20:58:53.445Z,100360.41
2023-04-26T21:01:23.602Z,100348.66
2023-04-26T21:03:53.056Z,100359.28
2023-04-26T21:06:21.996Z,100346.94
2023-04-26T21:08:50.913Z,100347.22
2023-04-26T21:11:20.474Z,100349.09
2023-04-26T21:13:56.287Z,100347.28
2023-04-26T21:16:25.411Z,100341.53
2023-04-26T21:18:53.781Z,100353.69
2023-04-26T21:21:23.178Z,100361.00
2023-04-26T21:23:51.788Z,100355.25
2023-04-26T21:26:21.367Z,100347.56
2023-04-26T21:28:51.485Z,100352.19
2023-04-26T21:31:29.169Z,100354.09
2023-04-26T21:34:02.237Z,100362.69
2023-04-26T21:36:48.573Z,100358.41
2023-04-26T21:40:05.987Z,100366.34
2023-04-26T21:42:51.396Z,100356.38
2023-04-26T21:45:27.680Z,100361.34
2023-04-26T21:47:56.754Z,100369.59
2023-04-26T21:50:25.682Z,100371.03
2023-04-26T21:52:54.592Z,100363.72
2023-04-26T21:55:24.243Z,100363.63
2023-04-26T21:57:57.260Z,100365.47
2023-04-26T22:00:27.703Z,100364.41
2023-04-26T22:02:56.991Z,100367.09
2023-04-26T22:05:27.035Z,100362.09
2023-04-26T22:07:56.359Z,100359.28
2023-04-26T22:10:24.983Z,100357.91
2023-04-26T22:12:53.531Z,100355.97
2023-04-26T22:15:22.069Z,100354.88
2023-04-26T22:17:51.324Z,100354.34
2023-04-26T22:20:19.635Z,100348.06
2023-04-26T22:22:48.161Z,100343.06
2023-04-26T22:25:17.234Z,100350.63
2023-04-26T22:27:46.206Z,100356.91
2023-04-26T22:30:24.874Z,100357.56
2023-04-26T22:32:58.151Z,100359.16
2023-04-26T22:35:30.054Z,100358.78
2023-04-26T22:38:01.833Z,100364.16
2023-04-26T22:40:32.490Z,100369.63
2023-04-26T22:43:01.303Z,100372.84
2023-04-26T22:45:29.587Z,100373.69
2023-04-26T22:47:57.902Z,100377.47
2023-04-26T22:50:27.423Z,100377.41
2023-04-26T22:52:57.713Z,100371.00
2023-04-26T22:55:26.417Z,100373.38
2023-04-26T22:57:56.936Z,100380.16
2023-04-26T23:00:25.993Z,100371.47
2023-04-26T23:02:55.281Z,100365.97
2023-04-26T23:05:23.602Z,100362.47
2023-04-26T23:07:53.095Z,100361.19
2023-04-26T23:10:21.872Z,100365.94
2023-04-26T23:12:51.393Z,100365.13
2023-04-26T23:15:20.120Z,100370.28
2023-04-26T23:17:49.214Z,100373.91
2023-04-26T23:20:18.051Z,100377.81
2023-04-26T23:22:47.295Z,100386.75
2023-04-26T23:25:16.549Z,100379.84
2023-04-26T23:27:46.010Z,100386.09
2023-04-26T23:30:15.739Z,100392.50
2023-04-26T23:32:45.103Z,100392.94
2023-04-26T23:35:13.783Z,100385.59
2023-04-26T23:37:43.238Z,100405.63
2023-04-26T23:40:14.385Z,100398.50
2023-04-26T23:42:43.308Z,100403.34
2023-04-26T23:45:12.621Z,100405.97
2023-04-26T23:47:48.674Z,100404.97
2023-04-26T23:50:18.658Z,100418.22
2023-04-26T23:52:47.628Z,100404.19
2023-04-26T23:55:16.833Z,100405.41
2023-04-26T23:57:45.835Z,100403.94
